createdAt,value
2022-08-25T00:01:49.806Z,22.00
2022-08-25T00:04:20.952Z,22.00
2022-08-25T00:06:50.872Z,21.90
2022-08-25T00:09:22.251Z,22.00
2022-08-25T00:11:52.397Z,22.30
2022-08-25T00:14:25.401Z,22.70
2022-08-25T00:16:53.838Z,22.30
2022-08-25T00:19:29.041Z,22.20
2022-08-25T00:21:57.321Z,22.40
2022-08-25T00:24:26.036Z,22.50
2022-08-25T00:26:58.204Z,22.50
2022-08-25T00:29:29.996Z,22.30
2022-08-25T00:31:59.316Z,22.50
2022-08-25T00:34:34.188Z,22.60
2022-08-25T00:37:02.694Z,22.50
2022-08-25T00:39:30.906Z,22.60
2022-08-25T00:42:00.732Z,22.60
2022-08-25T00:44:32.285Z,22.70
2022-08-25T00:47:03.450Z,22.80
2022-08-25T00:49:35.305Z,22.60
2022-08-25T00:52:08.919Z,22.80
2022-08-25T00:54:43.094Z,22.80
2022-08-25T00:57:17.049Z,22.80
2022-08-25T00:59:45.312Z,22.80
2022-08-25T01:02:16.542Z,22.90
2022-08-25T01:04:48.866Z,23.10
2022-08-25T01:07:22.144Z,23.20
2022-08-25T01:09:52.829Z,23.20
2022-08-25T01:12:22.749Z,23.10
2022-08-25T01:14:52.997Z,23.20
2022-08-25T01:17:21.878Z,23.40
2022-08-25T01:19:49.931Z,23.30
2022-08-25T01:22:20.769Z,23.40
2022-08-25T01:24:57.316Z,23.30
2022-08-25T01:27:25.400Z,23.60
2022-08-25T01:29:53.496Z,23.50
2022-08-25T01:32:21.550Z,23.50
2022-08-25T01:34:49.661Z,23.90
2022-08-25T01:37:21.388Z,23.70
2022-08-25T01:39:49.762Z,23.80
2022-08-25T01:42:34.809Z,23.60
2022-08-25T01:45:02.888Z,23.90
2022-08-25T01:47:31.901Z,23.30
2022-08-25T01:50:00.161Z,23.70
2022-08-25T01:52:35.569Z,23.90
2022-08-25T01:55:03.788Z,23.50
2022-08-25T01:57:32.425Z,23.40
2022-08-25T02:00:01.637Z,23.50
2022-08-25T02:02:29.757Z,23.60
2022-08-25T02:05:01.002Z,23.50
2022-08-25T02:07:30.417Z,23.70
2022-08-25T02:09:59.201Z,23.70
2022-08-25T02:12:32.479Z,23.60
2022-08-25T02:15:01.605Z,23.80
2022-08-25T02:17:30.488Z,24.10
2022-08-25T02:19:58.724Z,23.80
2022-08-25T02:22:26.912Z,23.80
2022-08-25T02:24:56.337Z,23.80
2022-08-25T02:27:24.460Z,24.00
2022-08-25T02:29:52.651Z,24.00
2022-08-25T02:32:20.762Z,23.90
2022-08-25T02:34:49.676Z,24.10
2022-08-25T02:37:17.766Z,24.00
2022-08-25T02:39:45.886Z,24.60
2022-08-25T02:42:15.454Z,24.10
2022-08-25T02:44:43.563Z,24.20
2022-08-25T02:47:11.592Z,24.10
2022-08-25T02:49:39.602Z,24.10
2022-08-25T02:52:08.331Z,24.20
2022-08-25T02:54:37.143Z,24.30
2022-08-25T02:57:05.653Z,24.20
2022-08-25T02:59:35.124Z,24.30
2022-08-25T03:02:03.236Z,24.40
2022-08-25T03:04:31.863Z,24.30
2022-08-25T03:07:00.499Z,24.40
2022-08-25T03:09:28.863Z,24.40
2022-08-25T03:11:56.859Z,24.50
2022-08-25T03:14:24.950Z,24.40
2022-08-25T03:16:54.496Z,24.60
2022-08-25T03:19:24.222Z,24.40
2022-08-25T03:21:56.109Z,24.50
2022-08-25T03:24:24.476Z,24.60
2022-08-25T03:26:55.986Z,24.50
2022-08-25T03:29:25.958Z,24.60
2022-08-25T03:31:58.090Z,24.60
2022-08-25T03:34:28.756Z,24.50
2022-08-25T03:36:59.167Z,24.50
2022-08-25T03:39:28.927Z,24.50
2022-08-25T03:41:57.002Z,24.40
2022-08-25T03:44:25.027Z,24.60
2022-08-25T03:46:55.060Z,24.60
2022-08-25T03:49:25.103Z,24.70
2022-08-25T03:51:55.289Z,24.60
2022-08-25T03:54:26.452Z,24.80
2022-08-25T03:56:55.217Z,24.80
2022-08-25T03:59:23.289Z,24.90
2022-08-25T04:01:55.150Z,25.00
2022-08-25T04:04:25.561Z,25.00
2022-08-25T04:06:53.945Z,25.10
2022-08-25T04:09:23.112Z,25.10
2022-08-25T04:11:53.115Z,25.20
2022-08-25T04:14:23.110Z,25.20
2022-08-25T04:16:52.000Z,25.30
2022-08-25T04:19:21.049Z,25.20
2022-08-25T04:21:51.585Z,25.30
2022-08-25T04:24:24.618Z,25.50
2022-08-25T04:26:53.197Z,25.70
2022-08-25T04:29:24.963Z,25.80
2022-08-25T04:31:55.902Z,26.30
2022-08-25T04:34:30.689Z,26.80
2022-08-25T04:37:02.784Z,26.10
2022-08-25T04:39:31.457Z,26.30
2022-08-25T04:42:00.460Z,26.40
2022-08-25T04:44:29.473Z,26.30
2022-08-25T04:46:58.302Z,26.60
2022-08-25T04:49:26.763Z,26.60
2022-08-25T04:51:56.173Z,26.30
2022-08-25T04:54:26.131Z,26.10
2022-08-25T04:56:58.688Z,26.40
2022-08-25T04:59:30.028Z,26.40
2022-08-25T05:02:02.077Z,26.50
2022-08-25T05:04:30.440Z,26.60
2022-08-25T05:06:59.452Z,27.00
2022-08-25T05:09:32.325Z,26.50
2022-08-25T05:12:02.114Z,26.50
2022-08-25T05:14:30.365Z,26.50
2022-08-25T05:16:59.022Z,26.20
2022-08-25T05:19:27.241Z,26.00
2022-08-25T05:21:58.096Z,26.80
2022-08-25T05:24:29.477Z,26.60
2022-08-25T05:26:58.143Z,26.40
2022-08-25T05:29:26.924Z,26.60
2022-08-25T05:31:55.100Z,26.60
2022-08-25T05:34:24.748Z,26.60
2022-08-25T05:36:52.906Z,26.60
2022-08-25T05:39:21.045Z,26.50
2022-08-25T05:41:50.546Z,26.60
2022-08-25T05:44:21.151Z,26.70
2022-08-25T05:46:51.076Z,26.70
2022-08-25T05:49:19.569Z,26.60
2022-08-25T05:51:47.685Z,26.70
2022-08-25T05:54:15.789Z,26.60
2022-08-25T05:56:45.275Z,26.50
2022-08-25T05:59:14.758Z,26.60
2022-08-25T06:02:00.252Z,26.70
2022-08-25T06:04:28.448Z,26.50
2022-08-25T06:06:56.504Z,26.60
2022-08-25T06:09:25.176Z,24.40
2022-08-25T06:11:55.172Z,24.10
2022-08-25T06:14:25.702Z,23.40
2022-08-25T06:16:54.201Z,22.50
2022-08-25T06:19:23.185Z,22.70
2022-08-25T06:21:56.154Z,22.00
2022-08-25T06:24:25.613Z,22.10
2022-08-25T06:26:54.207Z,21.60
2022-08-25T06:29:24.222Z,21.60
2022-08-25T06:31:52.435Z,21.20
2022-08-25T06:34:23.765Z,21.80
2022-08-25T06:36:53.093Z,21.40
2022-08-25T06:39:21.487Z,21.50
2022-08-25T06:41:53.670Z,21.90
2022-08-25T06:44:24.130Z,21.40
2022-08-25T06:46:52.633Z,21.90
2022-08-25T06:49:20.781Z,21.50
2022-08-25T06:51:49.523Z,21.90
2022-08-25T06:54:17.573Z,21.70
2022-08-25T06:56:45.623Z,21.70
2022-08-25T06:59:13.785Z,21.80
2022-08-25T07:01:43.448Z,22.00
2022-08-25T07:04:13.160Z,21.60
2022-08-25T07:06:42.130Z,21.50
2022-08-25T07:09:11.940Z,21.60
2022-08-25T07:11:40.466Z,21.10
2022-08-25T07:14:10.974Z,21.40
2022-08-25T07:16:40.162Z,21.60
2022-08-25T07:19:11.836Z,21.40
2022-08-25T07:21:45.719Z,21.50
2022-08-25T07:24:16.257Z,21.30
2022-08-25T07:26:46.548Z,21.80
2022-08-25T07:29:17.767Z,21.30
2022-08-25T07:31:46.224Z,21.20
2022-08-25T07:34:34.735Z,21.40
2022-08-25T07:37:05.273Z,21.30
2022-08-25T07:39:35.579Z,21.40
2022-08-25T07:42:04.802Z,21.10
2022-08-25T07:44:40.100Z,21.70
2022-08-25T07:47:11.389Z,21.10
2022-08-25T07:49:40.796Z,21.60
2022-08-25T07:52:09.001Z,21.50
2022-08-25T07:54:38.463Z,21.30
2022-08-25T07:57:09.836Z,21.60
2022-08-25T07:59:41.599Z,21.40
2022-08-25T08:02:17.621Z,21.30
2022-08-25T08:04:51.256Z,21.30
2022-08-25T08:07:21.140Z,21.30
2022-08-25T08:10:05.258Z,21.30
2022-08-25T08:12:39.920Z,21.40
2022-08-25T08:15:10.303Z,21.30
2022-08-25T08:17:40.027Z,21.30
2022-08-25T08:20:11.751Z,21.20
2022-08-25T08:22:42.419Z,21.20
2022-08-25T08:25:13.720Z,21.20
2022-08-25T08:27:47.089Z,21.10
2022-08-25T08:30:15.992Z,21.20
2022-08-25T08:33:08.677Z,21.40
2022-08-25T08:35:33.574Z,21.00
2022-08-25T08:38:01.760Z,21.20
2022-08-25T08:40:32.319Z,21.00
2022-08-25T08:43:08.376Z,21.20
2022-08-25T08:45:50.728Z,21.10
2022-08-25T08:48:44.151Z,20.90
2022-08-25T08:51:23.293Z,21.00
2022-08-25T08:53:57.386Z,21.00
2022-08-25T08:56:30.894Z,21.00
2022-08-25T08:59:05.766Z,21.10
2022-08-25T09:01:38.351Z,21.40
2022-08-25T09:04:12.447Z,21.30
2022-08-25T09:06:51.022Z,21.10
2022-08-25T09:09:26.379Z,21.00
2022-08-25T09:12:05.928Z,20.80
2022-08-25T09:15:12.630Z,20.90
2022-08-25T09:18:08.589Z,21.10
2022-08-25T09:20:58.729Z,21.10
2022-08-25T09:23:41.563Z,21.10
2022-08-25T09:26:27.255Z,21.70
2022-08-25T09:29:06.156Z,21.20
2022-08-25T09:31:38.730Z,21.40
2022-08-25T09:34:11.608Z,21.50
2022-08-25T09:36:40.905Z,21.90
2022-08-25T09:39:10.339Z,22.20
2022-08-25T09:41:51.504Z,21.60
2022-08-25T09:44:24.369Z,21.00
2022-08-25T09:47:08.107Z,20.90
2022-08-25T09:49:40.417Z,21.00
2022-08-25T09:52:35.939Z,20.80
2022-08-25T09:55:28.768Z,20.70
2022-08-25T09:57:58.909Z,21.00
2022-08-25T10:00:30.704Z,21.20
2022-08-25T10:03:11.663Z,20.80
2022-08-25T10:06:05.392Z,20.40
2022-08-25T10:08:39.447Z,20.20
2022-08-25T10:11:15.021Z,20.30
2022-08-25T10:13:46.680Z,20.60
2022-08-25T10:16:25.306Z,20.00
2022-08-25T10:19:04.821Z,20.10
2022-08-25T10:21:33.191Z,19.80
2022-08-25T10:24:02.923Z,19.90
2022-08-25T10:26:47.542Z,19.80
2022-08-25T10:29:32.761Z,19.40
2022-08-25T10:32:11.531Z,19.30
2022-08-25T10:34:51.653Z,19.60
2022-08-25T10:37:32.976Z,19.80
2022-08-25T10:40:16.713Z,19.80
2022-08-25T10:43:03.224Z,19.80
2022-08-25T10:45:45.022Z,19.80
2022-08-25T10:48:47.371Z,19.60
2022-08-25T10:51:40.052Z,19.40
2022-08-25T10:54:33.601Z,19.30
2022-08-25T10:57:10.276Z,19.40
2022-08-25T10:59:57.069Z,19.20
2022-08-25T11:03:16.578Z,19.10
2022-08-25T11:05:51.521Z,19.50
2022-08-25T11:08:30.911Z,18.50
2022-08-25T11:11:05.537Z,18.60
2022-08-25T11:13:42.804Z,18.50
2022-08-25T11:16:18.726Z,18.70
2022-08-25T11:18:57.350Z,18.20
2022-08-25T11:21:34.842Z,18.20
2022-08-25T11:24:15.148Z,18.10
2022-08-25T11:26:54.715Z,18.10
2022-08-25T11:29:26.515Z,18.00
2022-08-25T11:31:56.108Z,18.00
2022-08-25T11:34:25.232Z,17.70
2022-08-25T11:37:03.797Z,17.50
2022-08-25T11:39:56.331Z,17.50
2022-08-25T11:42:45.409Z,17.40
2022-08-25T11:45:37.216Z,17.20
2022-08-25T11:48:22.075Z,17.40
2022-08-25T11:51:01.668Z,17.40
2022-08-25T11:53:33.125Z,17.50
2022-08-25T11:56:05.600Z,17.50
2022-08-25T11:58:41.156Z,17.40
2022-08-25T12:01:47.403Z,17.30
2022-08-25T12:04:44.134Z,17.30
2022-08-25T12:07:23.951Z,18.00
2022-08-25T12:10:19.300Z,17.40
2022-08-25T12:13:25.207Z,17.00
2022-08-25T12:16:02.431Z,16.60
2022-08-25T12:18:46.201Z,16.30
2022-08-25T12:21:30.950Z,16.40
2022-08-25T12:24:12.879Z,16.40
2022-08-25T12:26:53.801Z,16.20
2022-08-25T12:29:32.221Z,16.00
2022-08-25T12:32:17.509Z,16.40
2022-08-25T12:35:15.693Z,16.30
2022-08-25T12:38:00.219Z,16.10
2022-08-25T12:40:34.188Z,16.10
2022-08-25T12:43:08.117Z,16.10
2022-08-25T12:45:45.150Z,16.10
2022-08-25T12:48:56.743Z,16.30
2022-08-25T12:51:27.619Z,16.30
2022-08-25T12:54:15.854Z,16.20
2022-08-25T12:56:51.530Z,16.30
2022-08-25T12:59:22.791Z,16.10
2022-08-25T13:02:32.999Z,15.70
2022-08-25T13:05:18.908Z,16.40
2022-08-25T13:08:05.466Z,16.30
2022-08-25T13:10:46.137Z,16.90
2022-08-25T13:13:30.137Z,16.50
2022-08-25T13:16:03.217Z,16.60
2022-08-25T13:18:38.392Z,16.60
2022-08-25T13:21:16.389Z,17.60
2022-08-25T13:23:47.845Z,16.70
2022-08-25T13:26:23.502Z,16.90
2022-08-25T13:28:58.933Z,17.40
2022-08-25T13:31:29.621Z,17.50
2022-08-25T13:34:02.701Z,17.80
2022-08-25T13:37:01.144Z,17.80
2022-08-25T13:39:53.118Z,18.10
2022-08-25T13:42:23.995Z,18.10
2022-08-25T13:44:57.157Z,18.00
2022-08-25T13:47:45.176Z,18.00
2022-08-25T13:50:22.796Z,18.10
2022-08-25T13:52:58.267Z,17.90
2022-08-25T13:55:38.363Z,18.00
2022-08-25T13:58:39.401Z,18.10
2022-08-25T14:01:23.730Z,18.20
2022-08-25T14:04:31.772Z,17.30
2022-08-25T14:07:34.191Z,16.10
2022-08-25T14:10:07.256Z,15.70
2022-08-25T14:12:41.504Z,15.50
2022-08-25T14:15:29.374Z,15.70
2022-08-25T14:18:07.673Z,15.20
2022-08-25T14:20:37.873Z,14.90
2022-08-25T14:23:12.747Z,14.80
2022-08-25T14:25:44.675Z,14.70
2022-08-25T14:28:17.826Z,14.90
2022-08-25T14:30:52.070Z,14.60
2022-08-25T14:33:25.179Z,14.70
2022-08-25T14:35:56.275Z,14.70
2022-08-25T14:38:24.816Z,14.70
2022-08-25T14:40:53.384Z,14.80
2022-08-25T14:43:23.930Z,14.90
2022-08-25T14:45:54.144Z,15.20
2022-08-25T14:48:32.527Z,15.20
2022-08-25T14:51:01.404Z,15.00
2022-08-25T14:53:29.527Z,15.00
2022-08-25T14:55:58.884Z,15.30
2022-08-25T14:58:33.832Z,15.10
2022-08-25T15:01:06.051Z,15.00
2022-08-25T15:03:39.194Z,15.00
2022-08-25T15:06:08.329Z,15.50
2022-08-25T15:08:57.456Z,15.20
2022-08-25T15:11:26.289Z,15.70
2022-08-25T15:13:54.482Z,15.70
2022-08-25T15:16:34.084Z,15.70
2022-08-25T15:19:06.824Z,15.20
2022-08-25T15:21:35.874Z,15.00
2022-08-25T15:24:05.328Z,15.70
2022-08-25T15:26:35.515Z,15.60
2022-08-25T15:29:04.884Z,15.30
2022-08-25T15:31:34.460Z,15.50
2022-08-25T15:34:02.553Z,15.50
2022-08-25T15:36:30.617Z,15.50
2022-08-25T15:38:58.690Z,15.50
2022-08-25T15:41:27.130Z,15.50
2022-08-25T15:43:56.650Z,15.50
2022-08-25T15:46:28.627Z,15.70
2022-08-25T15:49:01.129Z,16.10
2022-08-25T15:51:30.061Z,16.00
2022-08-25T15:53:58.572Z,16.00
2022-08-25T15:56:27.295Z,16.00
2022-08-25T15:58:56.045Z,16.30
2022-08-25T16:01:27.269Z,16.10
2022-08-25T16:04:00.347Z,16.20
2022-08-25T16:06:28.428Z,16.60
2022-08-25T16:08:56.679Z,16.60
2022-08-25T16:11:28.001Z,16.60
2022-08-25T16:13:58.971Z,16.80
2022-08-25T16:16:30.292Z,17.10
2022-08-25T16:19:00.228Z,17.20
2022-08-25T16:21:35.491Z,17.00
2022-08-25T16:24:07.752Z,17.10
2022-08-25T16:26:48.312Z,17.40
2022-08-25T16:29:17.113Z,17.10
2022-08-25T16:31:45.600Z,17.30
2022-08-25T16:34:24.486Z,17.20
2022-08-25T16:36:53.553Z,17.30
2022-08-25T16:39:23.938Z,17.10
2022-08-25T16:41:53.296Z,17.00
2022-08-25T16:44:22.959Z,17.50
2022-08-25T16:46:54.062Z,17.80
2022-08-25T16:49:24.163Z,17.10
2022-08-25T16:51:57.158Z,17.10
2022-08-25T16:54:43.333Z,17.30
2022-08-25T16:57:11.339Z,17.40
2022-08-25T16:59:39.612Z,17.70
2022-08-25T17:02:08.277Z,18.00
2022-08-25T17:04:37.715Z,17.80
2022-08-25T17:07:06.389Z,18.10
2022-08-25T17:09:36.263Z,18.10
2022-08-25T17:12:05.702Z,18.30
2022-08-25T17:14:34.045Z,18.20
2022-08-25T17:17:03.314Z,18.40
2022-08-25T17:19:35.088Z,18.80
2022-08-25T17:22:07.403Z,18.60
2022-08-25T17:24:35.845Z,18.20
2022-08-25T17:27:03.960Z,18.10
2022-08-25T17:29:32.860Z,18.30
2022-08-25T17:32:01.192Z,18.20
2022-08-25T17:34:30.200Z,18.20
2022-08-25T17:36:59.759Z,18.40
2022-08-25T17:39:30.062Z,18.30
2022-08-25T17:41:58.112Z,18.60
2022-08-25T17:44:27.557Z,18.50
2022-08-25T17:46:56.149Z,18.40
2022-08-25T17:49:25.449Z,18.50
2022-08-25T17:51:53.837Z,18.70
2022-08-25T17:54:21.938Z,18.50
2022-08-25T17:56:51.403Z,18.60
2022-08-25T17:59:19.763Z,18.70
2022-08-25T18:01:49.944Z,18.60
2022-08-25T18:04:23.459Z,18.90
2022-08-25T18:06:55.418Z,19.10
2022-08-25T18:09:23.701Z,19.10
2022-08-25T18:11:54.128Z,19.10
2022-08-25T18:14:25.394Z,19.30
2022-08-25T18:16:54.307Z,19.20
2022-08-25T18:19:22.430Z,18.90
2022-08-25T18:21:50.962Z,18.90
2022-08-25T18:24:20.657Z,19.20
2022-08-25T18:26:53.103Z,19.10
2022-08-25T18:29:21.147Z,19.10
2022-08-25T18:31:51.812Z,19.00
2022-08-25T18:34:22.027Z,18.50
2022-08-25T18:36:51.534Z,17.90
2022-08-25T18:39:38.211Z,16.70
2022-08-25T18:42:08.457Z,16.90
2022-08-25T18:44:37.089Z,15.90
2022-08-25T18:47:07.601Z,16.80
2022-08-25T18:49:36.985Z,14.90
2022-08-25T18:52:06.654Z,15.30
2022-08-25T18:54:36.328Z,15.00
2022-08-25T18:57:08.248Z,15.50
2022-08-25T18:59:38.651Z,15.10
2022-08-25T19:02:07.444Z,14.00
2022-08-25T19:04:35.684Z,13.80
2022-08-25T19:07:07.916Z,13.30
2022-08-25T19:09:36.628Z,13.60
2022-08-25T19:12:05.728Z,13.30
2022-08-25T19:14:33.779Z,13.40
2022-08-25T19:17:03.320Z,13.00
2022-08-25T19:19:31.523Z,13.40
2022-08-25T19:22:00.100Z,13.40
2022-08-25T19:24:29.667Z,13.90
2022-08-25T19:27:02.184Z,14.40
2022-08-25T19:29:31.130Z,14.60
2022-08-25T19:32:01.665Z,14.40
2022-08-25T19:34:39.097Z,14.60
2022-08-25T19:37:11.072Z,14.50
2022-08-25T19:39:42.780Z,14.80
2022-08-25T19:42:37.007Z,14.30
2022-08-25T19:45:08.840Z,14.70
2022-08-25T19:47:37.446Z,14.40
2022-08-25T19:50:09.364Z,14.40
2022-08-25T19:52:39.792Z,14.90
2022-08-25T19:55:08.854Z,15.40
2022-08-25T19:57:42.630Z,15.40
2022-08-25T20:00:15.470Z,15.30
2022-08-25T20:02:44.171Z,15.10
2022-08-25T20:05:14.988Z,15.00
2022-08-25T20:07:43.517Z,14.60
2022-08-25T20:10:14.753Z,14.80
2022-08-25T20:12:45.386Z,14.80
2022-08-25T20:15:16.448Z,14.60
2022-08-25T20:17:45.960Z,15.00
2022-08-25T20:20:18.645Z,14.80
2022-08-25T20:22:47.652Z,15.40
2022-08-25T20:25:17.873Z,15.00
2022-08-25T20:27:50.281Z,15.40
2022-08-25T20:30:22.949Z,15.80
2022-08-25T20:32:52.513Z,15.70
2022-08-25T20:35:26.365Z,15.50
2022-08-25T20:37:58.040Z,16.00
2022-08-25T20:40:30.287Z,16.50
2022-08-25T20:43:03.201Z,16.60
2022-08-25T20:45:31.975Z,16.50
2022-08-25T20:48:00.761Z,16.50
2022-08-25T20:50:30.212Z,16.40
2022-08-25T20:52:59.368Z,16.30
2022-08-25T20:55:29.233Z,16.50
2022-08-25T20:57:57.272Z,16.60
2022-08-25T21:00:25.892Z,16.40
2022-08-25T21:02:54.861Z,16.50
2022-08-25T21:05:23.095Z,16.50
2022-08-25T21:07:52.793Z,16.60
2022-08-25T21:10:21.199Z,16.60
2022-08-25T21:12:49.382Z,16.30
2022-08-25T21:15:21.984Z,16.30
2022-08-25T21:17:53.032Z,16.30
2022-08-25T21:20:24.501Z,17.00
2022-08-25T21:22:54.299Z,16.60
2022-08-25T21:25:22.708Z,16.40
2022-08-25T21:27:50.800Z,16.40
2022-08-25T21:30:19.036Z,16.80
2022-08-25T21:32:53.255Z,16.80
2022-08-25T21:35:23.141Z,17.10
2022-08-25T21:37:53.500Z,17.40
2022-08-25T21:40:23.055Z,17.40
2022-08-25T21:42:51.634Z,17.40
2022-08-25T21:45:21.688Z,17.80
2022-08-25T21:47:50.922Z,18.00
2022-08-25T21:50:20.271Z,18.00
2022-08-25T21:52:48.343Z,18.20
2022-08-25T21:55:24.181Z,18.30
2022-08-25T21:57:52.565Z,18.30
2022-08-25T22:00:22.256Z,18.50
2022-08-25T22:02:50.784Z,18.30
2022-08-25T22:05:19.081Z,18.70
2022-08-25T22:07:47.177Z,18.70
2022-08-25T22:10:17.690Z,18.80
2022-08-25T22:12:48.997Z,18.90
2022-08-25T22:15:18.962Z,19.20
2022-08-25T22:17:47.899Z,19.20
2022-08-25T22:20:17.170Z,19.40
2022-08-25T22:22:45.197Z,19.40
2022-08-25T22:25:13.877Z,19.40
2022-08-25T22:27:43.137Z,19.50
2022-08-25T22:30:14.627Z,19.40
2022-08-25T22:32:42.687Z,19.40
2022-08-25T22:35:13.556Z,19.70
2022-08-25T22:37:41.644Z,19.80
2022-08-25T22:40:11.842Z,19.50
2022-08-25T22:42:39.977Z,19.20
2022-08-25T22:45:10.643Z,19.10
2022-08-25T22:47:39.999Z,19.00
2022-08-25T22:50:10.924Z,18.90
2022-08-25T22:52:39.064Z,18.90
2022-08-25T22:55:11.892Z,18.70
2022-08-25T22:57:41.288Z,18.70
2022-08-25T23:00:14.741Z,18.60
2022-08-25T23:02:45.775Z,18.70
2022-08-25T23:05:15.566Z,18.60
2022-08-25T23:07:43.649Z,18.80
2022-08-25T23:10:14.462Z,18.80
2022-08-25T23:12:43.976Z,19.00
2022-08-25T23:15:13.398Z,18.90
2022-08-25T23:17:43.622Z,18.70
2022-08-25T23:20:26.001Z,18.90
2022-08-25T23:22:55.897Z,18.70
2022-08-25T23:25:24.791Z,19.00
2022-08-25T23:27:53.026Z,18.90
2022-08-25T23:30:21.423Z,19.20
2022-08-25T23:32:50.909Z,19.40
2022-08-25T23:35:19.417Z,19.20
2022-08-25T23:37:48.247Z,19.10
2022-08-25T23:40:19.335Z,19.20
2022-08-25T23:42:48.057Z,19.50
2022-08-25T23:45:16.926Z,19.20
2022-08-25T23:47:45.030Z,19.40
2022-08-25T23:50:14.466Z,19.40
2022-08-25T23:52:42.547Z,19.50
2022-08-25T23:55:10.955Z,19.50
2022-08-25T23:57:38.962Z,19.40
